createdAt,value
2024-02-24T00:01:12.560Z,11.82
2024-02-24T00:04:14.976Z,11.80
2024-02-24T00:07:17.170Z,11.81
2024-02-24T00:10:19.641Z,11.79
2024-02-24T00:13:21.714Z,11.77
2024-02-24T00:16:24.098Z,11.83
2024-02-24T00:19:26.389Z,11.81
2024-02-24T00:22:29.468Z,11.82
2024-02-24T00:25:31.634Z,11.79
2024-02-24T00:28:33.978Z,11.77
2024-02-24T00:31:36.312Z,11.74
2024-02-24T00:34:38.971Z,11.75
2024-02-24T00:37:41.336Z,11.77
2024-02-24T00:40:44.098Z,11.75
2024-02-24T00:43:46.383Z,11.74
2024-02-24T00:46:48.791Z,11.79
2024-02-24T00:49:50.877Z,11.79
2024-02-24T00:52:53.223Z,11.79
2024-02-24T00:55:55.356Z,11.77
2024-02-24T00:58:58.061Z,11.77
2024-02-24T01:02:00.184Z,11.76
2024-02-24T01:05:02.607Z,11.75
2024-02-24T01:08:04.971Z,11.74
2024-02-24T01:11:08.516Z,11.73
2024-02-24T01:14:10.815Z,11.71
2024-02-24T01:17:14.763Z,11.69
2024-02-24T01:20:17.358Z,11.68
2024-02-24T01:23:19.910Z,11.69
2024-02-24T01:26:23.056Z,11.69
2024-02-24T01:29:25.547Z,11.68
2024-02-24T01:32:27.808Z,11.66
2024-02-24T01:35:30.221Z,11.66
2024-02-24T01:38:32.350Z,11.63
2024-02-24T01:41:34.744Z,11.63
2024-02-24T01:44:36.873Z,11.60
2024-02-24T01:47:39.720Z,11.60
2024-02-24T01:50:41.999Z,11.61
2024-02-24T01:53:44.937Z,11.61
2024-02-24T01:56:47.620Z,11.62
2024-02-24T01:59:50.446Z,11.61
2024-02-24T02:02:53.422Z,11.61
2024-02-24T02:05:55.869Z,11.62
2024-02-24T02:08:58.026Z,11.63
2024-02-24T02:12:03.695Z,11.65
2024-02-24T02:15:06.948Z,11.62
2024-02-24T02:18:09.517Z,11.59
2024-02-24T02:21:12.268Z,11.64
2024-02-24T02:24:16.456Z,11.60
2024-02-24T02:27:18.699Z,11.73
2024-02-24T02:30:21.125Z,11.77
2024-02-24T02:33:23.484Z,11.81
2024-02-24T02:36:26.578Z,11.79
2024-02-24T02:39:28.888Z,11.67
2024-02-24T02:42:31.251Z,11.60
2024-02-24T02:45:33.825Z,11.58
2024-02-24T02:48:36.329Z,11.54
2024-02-24T02:51:38.587Z,11.53
2024-02-24T02:54:41.071Z,11.53
2024-02-24T02:57:43.139Z,11.50
2024-02-24T03:00:48.327Z,11.47
2024-02-24T03:03:50.612Z,11.43
2024-02-24T03:06:53.149Z,11.39
2024-02-24T03:09:55.225Z,11.39
2024-02-24T03:12:58.538Z,11.42
2024-02-24T03:16:00.916Z,11.41
2024-02-24T03:19:03.822Z,11.45
2024-02-24T03:22:06.023Z,11.57
2024-02-24T03:25:09.111Z,11.51
2024-02-24T03:28:11.380Z,11.50
2024-02-24T03:31:13.782Z,11.46
2024-02-24T03:34:15.897Z,11.64
2024-02-24T03:37:18.258Z,11.77
2024-02-24T03:40:20.377Z,11.71
2024-02-24T03:43:22.839Z,11.66
2024-02-24T03:46:24.922Z,11.53
2024-02-24T03:49:27.338Z,11.40
2024-02-24T03:52:29.437Z,11.32
2024-02-24T03:55:31.836Z,11.22
2024-02-24T03:58:33.996Z,11.14
2024-02-24T04:01:36.469Z,11.07
2024-02-24T04:04:38.855Z,11.09
2024-02-24T04:07:40.924Z,11.06
2024-02-24T04:10:44.569Z,11.08
2024-02-24T04:13:46.734Z,10.98
2024-02-24T04:16:49.139Z,10.96
2024-02-24T04:19:51.274Z,10.90
2024-02-24T04:22:53.692Z,10.85
2024-02-24T04:25:55.862Z,10.88
2024-02-24T04:28:58.289Z,10.84
2024-02-24T04:32:00.453Z,10.92
2024-02-24T04:35:03.022Z,10.81
2024-02-24T04:38:07.943Z,10.85
2024-02-24T04:41:10.573Z,10.81
2024-02-24T04:44:13.258Z,10.77
2024-02-24T04:47:15.740Z,10.75
2024-02-24T04:50:17.976Z,10.74
2024-02-24T04:53:20.478Z,10.76
2024-02-24T04:56:22.688Z,10.72
2024-02-24T04:59:25.096Z,10.67
2024-02-24T05:02:27.238Z,10.65
2024-02-24T05:05:29.643Z,10.62
2024-02-24T05:08:31.930Z,10.60
2024-02-24T05:11:34.521Z,10.60
2024-02-24T05:14:39.064Z,10.60
2024-02-24T05:17:41.673Z,10.56
2024-02-24T05:20:44.002Z,10.55
2024-02-24T05:23:46.473Z,10.53
2024-02-24T05:26:48.717Z,10.57
2024-02-24T05:29:51.246Z,10.45
2024-02-24T05:32:57.464Z,10.46
2024-02-24T05:36:01.181Z,10.43
2024-02-24T05:39:05.314Z,10.40
2024-02-24T05:42:07.843Z,10.38
2024-02-24T05:45:10.211Z,10.37
2024-02-24T05:48:12.698Z,10.37
2024-02-24T05:51:14.953Z,10.35
2024-02-24T05:54:17.331Z,10.40
2024-02-24T05:57:19.412Z,10.46
2024-02-24T06:00:21.997Z,10.53
2024-02-24T06:03:24.490Z,10.45
2024-02-24T06:06:26.765Z,10.46
2024-02-24T06:09:29.246Z,10.37
2024-02-24T06:12:31.381Z,10.33
2024-02-24T06:15:34.058Z,10.29
2024-02-24T06:18:36.242Z,10.29
2024-02-24T06:21:38.934Z,10.27
2024-02-24T06:24:42.175Z,10.35
2024-02-24T06:27:44.697Z,10.35
2024-02-24T06:30:47.010Z,10.37
2024-02-24T06:33:49.489Z,10.38
2024-02-24T06:36:51.686Z,10.40
2024-02-24T06:39:54.140Z,10.38
2024-02-24T06:42:56.370Z,10.30
2024-02-24T06:45:59.711Z,10.48
2024-02-24T06:49:02.044Z,10.68
2024-02-24T06:52:05.168Z,10.88
2024-02-24T06:55:07.471Z,10.74
2024-02-24T06:58:09.901Z,10.82
2024-02-24T07:01:12.528Z,10.71
2024-02-24T07:04:16.031Z,10.68
2024-02-24T07:07:18.263Z,10.83
2024-02-24T07:10:20.637Z,10.87
2024-02-24T07:13:23.428Z,10.96
2024-02-24T07:16:25.940Z,11.02
2024-02-24T07:19:28.485Z,11.11
2024-02-24T07:22:30.930Z,11.05
2024-02-24T07:25:33.088Z,11.01
2024-02-24T07:28:35.504Z,11.11
2024-02-24T07:31:38.279Z,11.16
2024-02-24T07:34:40.787Z,11.15
2024-02-24T07:37:42.966Z,11.13
2024-02-24T07:40:45.385Z,11.16
2024-02-24T07:43:47.489Z,11.29
2024-02-24T07:46:49.914Z,11.28
2024-02-24T07:49:52.165Z,11.35
2024-02-24T07:52:54.688Z,11.38
2024-02-24T07:55:56.758Z,11.55
2024-02-24T07:58:59.148Z,11.55
2024-02-24T08:02:02.689Z,11.67
2024-02-24T08:05:05.657Z,11.69
2024-02-24T08:08:07.911Z,11.80
2024-02-24T08:11:10.377Z,11.93
2024-02-24T08:14:12.911Z,12.08
2024-02-24T08:17:15.419Z,12.39
2024-02-24T08:20:17.584Z,12.81
2024-02-24T08:23:20.107Z,13.06
2024-02-24T08:26:22.389Z,13.03
2024-02-24T08:29:25.654Z,12.97
2024-02-24T08:32:27.823Z,13.25
2024-02-24T08:35:30.441Z,13.20
2024-02-24T08:38:33.384Z,13.41
2024-02-24T08:41:38.003Z,13.41
2024-02-24T08:44:40.696Z,13.77
2024-02-24T08:47:43.241Z,13.95
2024-02-24T08:50:45.410Z,14.12
2024-02-24T08:53:48.995Z,14.36
2024-02-24T08:56:51.657Z,14.05
2024-02-24T08:59:54.091Z,14.24
2024-02-24T09:02:56.545Z,14.56
2024-02-24T09:05:59.802Z,14.90
2024-02-24T09:09:02.088Z,14.38
2024-02-24T09:12:04.606Z,14.25
2024-02-24T09:15:07.479Z,14.19
2024-02-24T09:18:09.987Z,13.93
2024-02-24T09:21:13.348Z,13.86
2024-02-24T09:24:15.951Z,13.76
2024-02-24T09:27:18.198Z,14.14
2024-02-24T09:30:20.584Z,14.19
2024-02-24T09:33:23.170Z,14.20
2024-02-24T09:36:25.876Z,14.45
2024-02-24T09:39:27.979Z,15.23
2024-02-24T09:42:30.419Z,15.19
2024-02-24T09:45:45.269Z,15.44
2024-02-24T09:48:48.340Z,15.44
2024-02-24T09:51:50.574Z,15.42
2024-02-24T09:54:53.027Z,15.57
2024-02-24T09:57:56.568Z,15.31
2024-02-24T10:00:59.030Z,15.26
2024-02-24T10:04:01.805Z,14.92
2024-02-24T10:07:04.147Z,14.90
2024-02-24T10:10:07.987Z,14.71
2024-02-24T10:13:10.208Z,14.49
2024-02-24T10:16:12.668Z,14.24
2024-02-24T10:19:14.886Z,14.34
2024-02-24T10:22:18.682Z,14.21
2024-02-24T10:25:21.400Z,14.25
2024-02-24T10:28:23.937Z,14.10
2024-02-24T10:31:28.445Z,14.09
2024-02-24T10:34:31.039Z,14.10
2024-02-24T10:37:49.432Z,14.17
2024-02-24T10:41:00.558Z,14.13
2024-02-24T10:44:10.656Z,14.11
2024-02-24T10:47:21.182Z,14.14
2024-02-24T10:50:23.581Z,14.32
2024-02-24T10:53:31.428Z,14.09
2024-02-24T10:56:34.018Z,14.09
2024-02-24T10:59:36.748Z,14.15
2024-02-24T11:02:39.382Z,14.13
2024-02-24T11:05:46.623Z,13.86
2024-02-24T11:08:51.683Z,13.84
2024-02-24T11:12:02.200Z,13.75
2024-02-24T11:15:05.520Z,13.90
2024-02-24T11:18:08.698Z,13.91
2024-02-24T11:21:10.852Z,14.07
2024-02-24T11:24:20.620Z,14.32
2024-02-24T11:27:28.382Z,14.29
2024-02-24T11:30:40.223Z,14.40
2024-02-24T11:33:42.539Z,14.34
2024-02-24T11:36:45.672Z,14.27
2024-02-24T11:39:49.203Z,14.40
2024-02-24T11:42:52.641Z,14.39
2024-02-24T11:45:54.850Z,14.37
2024-02-24T11:48:57.489Z,14.46
2024-02-24T11:51:59.815Z,14.47
2024-02-24T11:55:02.295Z,14.37
2024-02-24T11:58:09.336Z,14.42
2024-02-24T12:01:15.326Z,14.39
2024-02-24T12:04:28.387Z,14.54
2024-02-24T12:07:30.781Z,14.49
2024-02-24T12:10:39.972Z,14.42
2024-02-24T12:13:42.138Z,14.45
2024-02-24T12:16:44.533Z,14.58
2024-02-24T12:19:46.789Z,14.64
2024-02-24T12:22:49.242Z,14.67
2024-02-24T12:25:51.409Z,14.55
2024-02-24T12:28:54.094Z,14.43
2024-02-24T12:31:57.065Z,14.62
2024-02-24T12:35:06.960Z,14.59
2024-02-24T12:38:16.842Z,14.53
2024-02-24T12:41:19.504Z,14.40
2024-02-24T12:44:21.782Z,14.48
2024-02-24T12:47:24.236Z,14.50
2024-02-24T12:50:26.783Z,14.46
2024-02-24T12:53:29.745Z,14.42
2024-02-24T12:56:32.121Z,14.41
2024-02-24T12:59:34.627Z,14.41
2024-02-24T13:02:37.054Z,14.44
2024-02-24T13:05:39.637Z,14.47
2024-02-24T13:08:42.125Z,14.58
2024-02-24T13:11:44.607Z,14.52
2024-02-24T13:14:48.421Z,14.55
2024-02-24T13:17:51.075Z,14.58
2024-02-24T13:20:53.328Z,14.41
2024-02-24T13:23:55.844Z,14.52
2024-02-24T13:26:58.106Z,14.48
2024-02-24T13:30:00.657Z,14.59
2024-02-24T13:33:03.061Z,14.48
2024-02-24T13:36:05.869Z,14.47
2024-02-24T13:39:08.071Z,14.44
2024-02-24T13:42:10.506Z,14.42
2024-02-24T13:45:12.769Z,14.45
2024-02-24T13:48:15.281Z,14.46
2024-02-24T13:51:17.453Z,14.48
2024-02-24T13:54:19.801Z,14.42
2024-02-24T13:57:21.890Z,14.46
2024-02-24T14:00:24.358Z,14.44
2024-02-24T14:03:26.829Z,14.43
2024-02-24T14:06:29.167Z,14.46
2024-02-24T14:09:31.801Z,14.47
2024-02-24T14:12:34.071Z,14.41
2024-02-24T14:15:36.607Z,14.44
2024-02-24T14:18:38.989Z,14.43
2024-02-24T14:21:41.598Z,14.36
2024-02-24T14:24:43.664Z,14.41
2024-02-24T14:27:46.082Z,14.37
2024-02-24T14:30:48.207Z,14.44
2024-02-24T14:33:50.811Z,14.42
2024-02-24T14:36:55.339Z,14.37
2024-02-24T14:39:58.382Z,14.45
2024-02-24T14:43:01.643Z,14.41
2024-02-24T14:46:04.281Z,14.34
2024-02-24T14:49:06.539Z,14.36
2024-02-24T14:52:10.490Z,14.31
2024-02-24T14:55:13.165Z,14.31
2024-02-24T14:58:15.655Z,14.31
2024-02-24T15:01:17.819Z,14.25
2024-02-24T15:04:24.924Z,14.21
2024-02-24T15:07:27.275Z,14.20
2024-02-24T15:10:29.681Z,14.18
2024-02-24T15:13:32.970Z,14.11
2024-02-24T15:16:37.477Z,14.12
2024-02-24T15:19:41.726Z,14.07
2024-02-24T15:22:44.385Z,14.04
2024-02-24T15:25:47.884Z,14.04
2024-02-24T15:28:50.696Z,14.01
2024-02-24T15:31:53.689Z,14.01
2024-02-24T15:34:56.353Z,13.93
2024-02-24T15:37:59.571Z,13.93
2024-02-24T15:41:01.985Z,13.91
2024-02-24T15:44:05.656Z,13.87
2024-02-24T15:47:08.028Z,13.83
2024-02-24T15:50:10.812Z,13.76
2024-02-24T15:53:14.163Z,13.73
2024-02-24T15:56:16.724Z,13.69
2024-02-24T15:59:19.859Z,13.66
2024-02-24T16:02:21.988Z,13.59
2024-02-24T16:05:24.375Z,13.50
2024-02-24T16:08:28.111Z,13.47
2024-02-24T16:11:30.630Z,13.42
2024-02-24T16:14:33.124Z,13.37
2024-02-24T16:17:35.758Z,13.33
2024-02-24T16:20:38.481Z,13.30
2024-02-24T16:23:40.935Z,13.30
2024-02-24T16:26:43.117Z,13.24
2024-02-24T16:29:45.496Z,13.18
2024-02-24T16:32:48.180Z,13.17
2024-02-24T16:35:50.776Z,13.13
2024-02-24T16:38:56.306Z,13.15
2024-02-24T16:41:58.971Z,13.17
2024-02-24T16:45:03.516Z,13.11
2024-02-24T16:48:06.270Z,13.08
2024-02-24T16:51:08.584Z,13.05
2024-02-24T16:54:11.029Z,13.05
2024-02-24T16:57:14.221Z,12.99
2024-02-24T17:00:18.241Z,13.02
2024-02-24T17:03:20.545Z,12.96
2024-02-24T17:06:23.144Z,12.93
2024-02-24T17:09:25.431Z,12.93
2024-02-24T17:12:27.999Z,12.92
2024-02-24T17:15:30.212Z,12.92
2024-02-24T17:18:36.871Z,12.91
2024-02-24T17:21:39.536Z,12.90
2024-02-24T17:24:43.556Z,12.88
2024-02-24T17:27:49.108Z,12.87
2024-02-24T17:30:51.980Z,12.88
2024-02-24T17:33:54.194Z,12.85
2024-02-24T17:36:56.646Z,12.88
2024-02-24T17:39:58.843Z,12.85
2024-02-24T17:43:01.454Z,12.83
2024-02-24T17:46:03.829Z,12.82
2024-02-24T17:49:06.513Z,12.78
2024-02-24T17:52:08.687Z,12.75
2024-02-24T17:55:11.517Z,12.72
2024-02-24T17:58:14.363Z,12.67
2024-02-24T18:01:17.035Z,12.65
2024-02-24T18:04:20.744Z,12.68
2024-02-24T18:07:23.955Z,12.70
2024-02-24T18:10:26.671Z,12.75
2024-02-24T18:13:28.860Z,12.72
2024-02-24T18:16:31.327Z,12.65
2024-02-24T18:19:33.501Z,12.58
2024-02-24T18:22:36.082Z,12.60
2024-02-24T18:25:38.174Z,12.52
2024-02-24T18:28:41.002Z,12.50
2024-02-24T18:31:43.254Z,12.46
2024-02-24T18:34:45.731Z,12.49
2024-02-24T18:37:47.918Z,12.40
2024-02-24T18:40:50.319Z,12.39
2024-02-24T18:43:52.419Z,12.36
2024-02-24T18:46:54.821Z,12.34
2024-02-24T18:49:58.290Z,12.31
2024-02-24T18:53:00.737Z,12.30
2024-02-24T18:56:02.861Z,12.26
2024-02-24T18:59:06.515Z,12.26
2024-02-24T19:02:11.029Z,12.21
2024-02-24T19:05:13.490Z,12.25
2024-02-24T19:08:15.961Z,12.24
2024-02-24T19:11:18.358Z,12.19
2024-02-24T19:14:21.014Z,12.11
2024-02-24T19:17:23.488Z,12.11
2024-02-24T19:20:25.634Z,12.08
2024-02-24T19:23:29.415Z,12.05
2024-02-24T19:26:31.709Z,12.02
2024-02-24T19:29:34.276Z,11.97
2024-02-24T19:32:36.590Z,11.97
2024-02-24T19:35:42.611Z,11.95
2024-02-24T19:38:45.200Z,11.85
2024-02-24T19:41:47.770Z,11.86
2024-02-24T19:44:51.514Z,11.84
2024-02-24T19:47:54.052Z,11.82
2024-02-24T19:50:58.483Z,11.82
2024-02-24T19:54:01.364Z,11.76
2024-02-24T19:57:03.835Z,11.78
2024-02-24T20:00:06.671Z,11.75
2024-02-24T20:03:12.927Z,11.74
2024-02-24T20:06:15.070Z,11.84
2024-02-24T20:09:18.018Z,11.76
2024-02-24T20:12:20.101Z,11.69
2024-02-24T20:15:22.136Z,11.78
2024-02-24T20:18:24.317Z,11.65
2024-02-24T20:21:28.661Z,11.58
2024-02-24T20:24:30.568Z,11.58
2024-02-24T20:27:32.487Z,11.57
2024-02-24T20:30:34.520Z,11.54
2024-02-24T20:33:36.538Z,11.60
2024-02-24T20:36:38.504Z,11.55
2024-02-24T20:39:40.444Z,11.42
2024-02-24T20:42:42.393Z,11.39
2024-02-24T20:45:44.329Z,11.25
2024-02-24T20:48:46.477Z,11.26
2024-02-24T20:51:50.503Z,11.25
2024-02-24T20:54:54.793Z,11.23
2024-02-24T20:57:56.763Z,11.22
2024-02-24T21:00:58.843Z,11.10
2024-02-24T21:04:00.840Z,11.12
2024-02-24T21:07:03.453Z,11.11
2024-02-24T21:10:05.593Z,11.10
2024-02-24T21:13:07.525Z,11.09
2024-02-24T21:16:09.616Z,11.10
2024-02-24T21:19:11.611Z,11.07
2024-02-24T21:22:14.096Z,11.09
2024-02-24T21:25:16.082Z,11.01
2024-02-24T21:28:18.300Z,10.93
2024-02-24T21:31:20.321Z,10.95
2024-02-24T21:34:23.364Z,10.97
2024-02-24T21:37:31.738Z,10.93
2024-02-24T21:40:33.783Z,10.91
2024-02-24T21:43:35.724Z,10.90
2024-02-24T21:46:37.644Z,10.87
2024-02-24T21:49:39.857Z,10.84
2024-02-24T21:52:41.843Z,10.86
2024-02-24T21:55:43.733Z,10.84
2024-02-24T21:58:45.687Z,10.84
2024-02-24T22:01:47.588Z,10.85
2024-02-24T22:04:51.378Z,10.85
2024-02-24T22:07:53.978Z,10.82
2024-02-24T22:10:56.598Z,10.79
2024-02-24T22:13:59.150Z,10.81
2024-02-24T22:17:01.589Z,10.82
2024-02-24T22:20:04.066Z,10.76
2024-02-24T22:23:06.554Z,10.72
2024-02-24T22:26:08.621Z,10.68
2024-02-24T22:29:11.372Z,10.66
2024-02-24T22:32:13.665Z,10.61
2024-02-24T22:35:16.646Z,10.61
2024-02-24T22:38:18.781Z,10.56
2024-02-24T22:41:22.446Z,10.64
2024-02-24T22:44:24.719Z,10.61
2024-02-24T22:47:27.243Z,10.58
2024-02-24T22:50:30.665Z,10.60
2024-02-24T22:53:33.256Z,10.53
2024-02-24T22:56:36.040Z,10.57
2024-02-24T22:59:38.800Z,10.57
2024-02-24T23:02:41.159Z,10.56
2024-02-24T23:05:43.624Z,10.61
2024-02-24T23:08:46.557Z,10.64
2024-02-24T23:11:49.232Z,10.58
2024-02-24T23:14:51.577Z,10.59
2024-02-24T23:17:56.743Z,10.55
2024-02-24T23:20:59.102Z,10.56
2024-02-24T23:24:03.463Z,10.54
2024-02-24T23:27:06.460Z,10.46
2024-02-24T23:30:09.326Z,10.47
2024-02-24T23:33:11.629Z,10.44
2024-02-24T23:36:14.240Z,10.46
2024-02-24T23:39:16.466Z,10.41
2024-02-24T23:42:19.594Z,10.36
2024-02-24T23:45:22.068Z,10.35
2024-02-24T23:48:24.584Z,10.35
2024-02-24T23:51:27.075Z,10.33
2024-02-24T23:54:29.465Z,10.33
2024-02-24T23:57:33.892Z,10.32
